sensor_id;sensor_type;location;lat;lon;timestamp;P1;durP1;ratioP1;P2;durP2;ratioP2
59390;SDS011;53405;57.012;40.984;2022-11-15T00:00:35;4.13;;;0.95;;
59390;SDS011;53405;57.012;40.984;2022-11-15T00:03:41;2.95;;;0.80;;
59390;SDS011;53405;57.012;40.984;2022-11-15T00:06:47;5.05;;;0.88;;
59390;SDS011;53405;57.012;40.984;2022-11-15T00:09:53;4.15;;;0.98;;
59390;SDS011;53405;57.012;40.984;2022-11-15T00:12:59;5.05;;;0.73;;
59390;SDS011;53405;57.012;40.984;2022-11-15T00:16:05;2.83;;;0.80;;
59390;SDS011;53405;57.012;40.984;2022-11-15T00:19:12;4.80;;;0.93;;
59390;SDS011;53405;57.012;40.984;2022-11-15T00:22:19;5.20;;;0.90;;
59390;SDS011;53405;57.012;40.984;2022-11-15T00:25:25;2.95;;;1.05;;
59390;SDS011;53405;57.012;40.984;2022-11-15T00:28:32;3.53;;;1.10;;
59390;SDS011;53405;57.012;40.984;2022-11-15T00:31:38;4.07;;;1.00;;
59390;SDS011;53405;57.012;40.984;2022-11-15T00:34:45;2.20;;;0.75;;
59390;SDS011;53405;57.012;40.984;2022-11-15T00:37:51;3.85;;;0.90;;
59390;SDS011;53405;57.012;40.984;2022-11-15T00:40:58;3.55;;;1.00;;
59390;SDS011;53405;57.012;40.984;2022-11-15T00:44:05;3.10;;;0.90;;
59390;SDS011;53405;57.012;40.984;2022-11-15T00:47:11;3.33;;;0.90;;
59390;SDS011;53405;57.012;40.984;2022-11-15T00:50:17;4.95;;;0.90;;
59390;SDS011;53405;57.012;40.984;2022-11-15T00:53:23;4.38;;;1.17;;
59390;SDS011;53405;57.012;40.984;2022-11-15T00:56:29;3.70;;;1.00;;
59390;SDS011;53405;57.012;40.984;2022-11-15T00:59:36;7.32;;;1.00;;
59390;SDS011;53405;57.012;40.984;2022-11-15T01:02:42;2.08;;;0.90;;
59390;SDS011;53405;57.012;40.984;2022-11-15T01:05:48;6.03;;;0.98;;
59390;SDS011;53405;57.012;40.984;2022-11-15T01:08:54;3.53;;;0.80;;
59390;SDS011;53405;57.012;40.984;2022-11-15T01:12:00;3.30;;;0.90;;
59390;SDS011;53405;57.012;40.984;2022-11-15T01:15:06;2.63;;;0.68;;
59390;SDS011;53405;57.012;40.984;2022-11-15T01:18:13;3.83;;;0.90;;
59390;SDS011;53405;57.012;40.984;2022-11-15T01:21:19;3.97;;;0.60;;
59390;SDS011;53405;57.012;40.984;2022-11-15T01:24:25;4.13;;;1.30;;
59390;SDS011;53405;57.012;40.984;2022-11-15T01:27:31;4.65;;;0.70;;
59390;SDS011;53405;57.012;40.984;2022-11-15T01:30:37;3.28;;;0.63;;
59390;SDS011;53405;57.012;40.984;2022-11-15T01:33:44;2.67;;;0.70;;
59390;SDS011;53405;57.012;40.984;2022-11-15T01:36:50;2.28;;;0.70;;
59390;SDS011;53405;57.012;40.984;2022-11-15T01:39:56;5.18;;;1.10;;
59390;SDS011;53405;57.012;40.984;2022-11-15T01:46:35;4.10;;;1.00;;
59390;SDS011;53405;57.012;40.984;2022-11-15T01:49:49;4.45;;;0.93;;
59390;SDS011;53405;57.012;40.984;2022-11-15T01:52:58;4.38;;;1.10;;
59390;SDS011;53405;57.012;40.984;2022-11-15T01:56:05;4.63;;;0.93;;
59390;SDS011;53405;57.012;40.984;2022-11-15T01:59:14;5.70;;;1.13;;
59390;SDS011;53405;57.012;40.984;2022-11-15T02:02:20;3.30;;;0.73;;
59390;SDS011;53405;57.012;40.984;2022-11-15T02:05:27;5.25;;;1.05;;
59390;SDS011;53405;57.012;40.984;2022-11-15T02:08:33;2.55;;;0.80;;
59390;SDS011;53405;57.012;40.984;2022-11-15T02:11:39;4.07;;;0.80;;
59390;SDS011;53405;57.012;40.984;2022-11-15T02:14:51;3.40;;;0.80;;
59390;SDS011;53405;57.012;40.984;2022-11-15T02:21:35;4.03;;;0.88;;
59390;SDS011;53405;57.012;40.984;2022-11-15T02:28:29;5.75;;;1.08;;
59390;SDS011;53405;57.012;40.984;2022-11-15T02:38:59;3.78;;;1.00;;
59390;SDS011;53405;57.012;40.984;2022-11-15T02:42:19;3.95;;;1.13;;
59390;SDS011;53405;57.012;40.984;2022-11-15T02:45:51;3.92;;;1.10;;
59390;SDS011;53405;57.012;40.984;2022-11-15T02:49:03;8.32;;;1.00;;
59390;SDS011;53405;57.012;40.984;2022-11-15T02:52:14;5.57;;;1.20;;
59390;SDS011;53405;57.012;40.984;2022-11-15T02:55:35;4.50;;;1.15;;
59390;SDS011;53405;57.012;40.984;2022-11-15T03:06:08;4.85;;;1.55;;
59390;SDS011;53405;57.012;40.984;2022-11-15T03:15:57;5.10;;;1.45;;
59390;SDS011;53405;57.012;40.984;2022-11-15T03:19:13;3.97;;;1.10;;
59390;SDS011;53405;57.012;40.984;2022-11-15T03:22:42;4.03;;;1.10;;
59390;SDS011;53405;57.012;40.984;2022-11-15T03:25:51;5.38;;;1.02;;
59390;SDS011;53405;57.012;40.984;2022-11-15T03:29:01;2.95;;;0.82;;
59390;SDS011;53405;57.012;40.984;2022-11-15T03:32:14;2.92;;;0.88;;
59390;SDS011;53405;57.012;40.984;2022-11-15T03:35:25;7.50;;;1.98;;
59390;SDS011;53405;57.012;40.984;2022-11-15T03:38:35;4.90;;;1.15;;
59390;SDS011;53405;57.012;40.984;2022-11-15T03:41:49;4.70;;;1.40;;
59390;SDS011;53405;57.012;40.984;2022-11-15T03:45:13;4.80;;;1.13;;
59390;SDS011;53405;57.012;40.984;2022-11-15T03:48:21;1.80;;;0.80;;
59390;SDS011;53405;57.012;40.984;2022-11-15T03:51:32;5.55;;;1.20;;
59390;SDS011;53405;57.012;40.984;2022-11-15T03:54:47;5.30;;;1.20;;
59390;SDS011;53405;57.012;40.984;2022-11-15T03:57:59;6.22;;;1.40;;
59390;SDS011;53405;57.012;40.984;2022-11-15T04:01:06;12.80;;;1.88;;
59390;SDS011;53405;57.012;40.984;2022-11-15T04:04:12;6.72;;;1.65;;
59390;SDS011;53405;57.012;40.984;2022-11-15T04:07:18;6.85;;;1.60;;
59390;SDS011;53405;57.012;40.984;2022-11-15T04:10:24;6.22;;;2.20;;
59390;SDS011;53405;57.012;40.984;2022-11-15T04:13:31;6.07;;;1.83;;
59390;SDS011;53405;57.012;40.984;2022-11-15T04:16:37;13.25;;;2.40;;
59390;SDS011;53405;57.012;40.984;2022-11-15T04:23:21;9.65;;;1.90;;
59390;SDS011;53405;57.012;40.984;2022-11-15T04:26:47;7.07;;;1.63;;
59390;SDS011;53405;57.012;40.984;2022-11-15T04:29:53;6.90;;;2.00;;
59390;SDS011;53405;57.012;40.984;2022-11-15T04:32:59;8.57;;;2.28;;
59390;SDS011;53405;57.012;40.984;2022-11-15T04:36:06;10.98;;;2.35;;
59390;SDS011;53405;57.012;40.984;2022-11-15T04:39:31;7.18;;;2.33;;
59390;SDS011;53405;57.012;40.984;2022-11-15T04:42:37;10.13;;;2.50;;
59390;SDS011;53405;57.012;40.984;2022-11-15T04:45:45;14.88;;;3.50;;
59390;SDS011;53405;57.012;40.984;2022-11-15T04:48:51;7.57;;;2.40;;
59390;SDS011;53405;57.012;40.984;2022-11-15T04:52:02;10.02;;;2.30;;
59390;SDS011;53405;57.012;40.984;2022-11-15T04:55:11;9.43;;;2.42;;
59390;SDS011;53405;57.012;40.984;2022-11-15T04:58:18;10.25;;;2.42;;
59390;SDS011;53405;57.012;40.984;2022-11-15T05:01:24;9.25;;;2.17;;
59390;SDS011;53405;57.012;40.984;2022-11-15T05:04:30;8.27;;;2.53;;
59390;SDS011;53405;57.012;40.984;2022-11-15T05:07:37;4.88;;;2.30;;
59390;SDS011;53405;57.012;40.984;2022-11-15T05:10:43;8.90;;;2.25;;
59390;SDS011;53405;57.012;40.984;2022-11-15T05:13:49;7.68;;;2.30;;
59390;SDS011;53405;57.012;40.984;2022-11-15T05:16:56;8.82;;;2.47;;
59390;SDS011;53405;57.012;40.984;2022-11-15T05:20:02;7.97;;;2.70;;
59390;SDS011;53405;57.012;40.984;2022-11-15T05:23:08;7.85;;;2.97;;
59390;SDS011;53405;57.012;40.984;2022-11-15T05:26:15;11.93;;;3.90;;
59390;SDS011;53405;57.012;40.984;2022-11-15T05:29:22;11.00;;;3.63;;
59390;SDS011;53405;57.012;40.984;2022-11-15T05:32:28;7.28;;;2.83;;
59390;SDS011;53405;57.012;40.984;2022-11-15T05:35:39;10.43;;;3.47;;
59390;SDS011;53405;57.012;40.984;2022-11-15T05:38:47;8.50;;;3.97;;
59390;SDS011;53405;57.012;40.984;2022-11-15T05:41:57;17.45;;;4.35;;
59390;SDS011;53405;57.012;40.984;2022-11-15T05:45:11;6.97;;;2.85;;
59390;SDS011;53405;57.012;40.984;2022-11-15T05:48:17;8.25;;;3.20;;
59390;SDS011;53405;57.012;40.984;2022-11-15T05:51:23;10.38;;;3.00;;
59390;SDS011;53405;57.012;40.984;2022-11-15T05:54:31;10.35;;;3.75;;
59390;SDS011;53405;57.012;40.984;2022-11-15T05:57:40;10.85;;;3.80;;
59390;SDS011;53405;57.012;40.984;2022-11-15T06:00:46;9.07;;;2.90;;
59390;SDS011;53405;57.012;40.984;2022-11-15T06:03:54;8.38;;;2.92;;
59390;SDS011;53405;57.012;40.984;2022-11-15T06:07:00;8.25;;;2.00;;
59390;SDS011;53405;57.012;40.984;2022-11-15T06:10:07;6.45;;;2.50;;
59390;SDS011;53405;57.012;40.984;2022-11-15T06:13:14;9.63;;;2.58;;
59390;SDS011;53405;57.012;40.984;2022-11-15T06:16:20;11.52;;;2.15;;
59390;SDS011;53405;57.012;40.984;2022-11-15T06:19:26;10.45;;;2.72;;
59390;SDS011;53405;57.012;40.984;2022-11-15T06:22:32;10.02;;;2.80;;
59390;SDS011;53405;57.012;40.984;2022-11-15T06:25:38;7.03;;;3.03;;
59390;SDS011;53405;57.012;40.984;2022-11-15T06:28:44;10.00;;;2.92;;
59390;SDS011;53405;57.012;40.984;2022-11-15T06:31:50;7.70;;;2.67;;
59390;SDS011;53405;57.012;40.984;2022-11-15T06:34:56;10.75;;;3.28;;
59390;SDS011;53405;57.012;40.984;2022-11-15T06:38:06;9.52;;;3.03;;
59390;SDS011;53405;57.012;40.984;2022-11-15T06:41:15;11.50;;;2.92;;
59390;SDS011;53405;57.012;40.984;2022-11-15T06:44:22;15.10;;;3.33;;
59390;SDS011;53405;57.012;40.984;2022-11-15T06:47:28;9.43;;;3.10;;
59390;SDS011;53405;57.012;40.984;2022-11-15T06:50:34;12.63;;;3.35;;
59390;SDS011;53405;57.012;40.984;2022-11-15T06:53:40;10.82;;;3.20;;
59390;SDS011;53405;57.012;40.984;2022-11-15T06:56:47;12.48;;;3.78;;
59390;SDS011;53405;57.012;40.984;2022-11-15T06:59:53;8.73;;;3.45;;
59390;SDS011;53405;57.012;40.984;2022-11-15T07:02:59;12.20;;;3.33;;
59390;SDS011;53405;57.012;40.984;2022-11-15T07:06:06;11.32;;;3.50;;
59390;SDS011;53405;57.012;40.984;2022-11-15T07:09:13;7.72;;;3.00;;
59390;SDS011;53405;57.012;40.984;2022-11-15T07:12:20;8.25;;;3.20;;
59390;SDS011;53405;57.012;40.984;2022-11-15T07:15:26;8.90;;;2.80;;
59390;SDS011;53405;57.012;40.984;2022-11-15T07:18:35;10.70;;;3.45;;
59390;SDS011;53405;57.012;40.984;2022-11-15T07:21:44;10.52;;;2.83;;
59390;SDS011;53405;57.012;40.984;2022-11-15T07:24:50;8.30;;;3.28;;
59390;SDS011;53405;57.012;40.984;2022-11-15T07:27:56;9.60;;;3.17;;
59390;SDS011;53405;57.012;40.984;2022-11-15T07:31:03;6.95;;;3.03;;
59390;SDS011;53405;57.012;40.984;2022-11-15T07:34:11;11.50;;;3.03;;
59390;SDS011;53405;57.012;40.984;2022-11-15T07:37:17;6.15;;;2.33;;
59390;SDS011;53405;57.012;40.984;2022-11-15T07:40:23;9.10;;;2.30;;
59390;SDS011;53405;57.012;40.984;2022-11-15T07:43:31;13.52;;;3.50;;
59390;SDS011;53405;57.012;40.984;2022-11-15T07:46:39;11.15;;;2.70;;
59390;SDS011;53405;57.012;40.984;2022-11-15T07:49:45;11.68;;;2.97;;
59390;SDS011;53405;57.012;40.984;2022-11-15T07:52:55;7.05;;;2.10;;
59390;SDS011;53405;57.012;40.984;2022-11-15T07:56:02;7.40;;;2.20;;
59390;SDS011;53405;57.012;40.984;2022-11-15T07:59:12;6.10;;;1.98;;
59390;SDS011;53405;57.012;40.984;2022-11-15T08:02:18;6.55;;;2.10;;
59390;SDS011;53405;57.012;40.984;2022-11-15T08:05:24;8.60;;;3.15;;
59390;SDS011;53405;57.012;40.984;2022-11-15T08:08:30;7.70;;;2.38;;
59390;SDS011;53405;57.012;40.984;2022-11-15T08:11:36;7.10;;;2.50;;
59390;SDS011;53405;57.012;40.984;2022-11-15T08:14:42;6.68;;;2.47;;
59390;SDS011;53405;57.012;40.984;2022-11-15T08:17:53;6.10;;;2.60;;
59390;SDS011;53405;57.012;40.984;2022-11-15T08:21:03;8.65;;;2.50;;
59390;SDS011;53405;57.012;40.984;2022-11-15T08:24:09;7.93;;;2.13;;
59390;SDS011;53405;57.012;40.984;2022-11-15T08:27:16;8.27;;;3.00;;
59390;SDS011;53405;57.012;40.984;2022-11-15T08:30:22;9.57;;;2.28;;
59390;SDS011;53405;57.012;40.984;2022-11-15T08:33:29;7.85;;;2.20;;
59390;SDS011;53405;57.012;40.984;2022-11-15T08:36:37;8.27;;;2.40;;
59390;SDS011;53405;57.012;40.984;2022-11-15T08:39:47;7.72;;;2.55;;
59390;SDS011;53405;57.012;40.984;2022-11-15T08:42:57;6.57;;;2.17;;
59390;SDS011;53405;57.012;40.984;2022-11-15T08:46:09;7.95;;;2.00;;
59390;SDS011;53405;57.012;40.984;2022-11-15T08:49:18;12.73;;;1.98;;
59390;SDS011;53405;57.012;40.984;2022-11-15T08:52:24;7.32;;;1.70;;
59390;SDS011;53405;57.012;40.984;2022-11-15T08:55:31;8.73;;;2.08;;
59390;SDS011;53405;57.012;40.984;2022-11-15T08:58:37;7.80;;;2.03;;
59390;SDS011;53405;57.012;40.984;2022-11-15T09:01:43;7.07;;;1.90;;
59390;SDS011;53405;57.012;40.984;2022-11-15T09:04:53;5.88;;;1.85;;
59390;SDS011;53405;57.012;40.984;2022-11-15T09:08:04;11.45;;;2.05;;
59390;SDS011;53405;57.012;40.984;2022-11-15T09:11:18;5.10;;;1.73;;
59390;SDS011;53405;57.012;40.984;2022-11-15T09:14:27;3.88;;;2.10;;
59390;SDS011;53405;57.012;40.984;2022-11-15T09:17:33;6.13;;;1.80;;
59390;SDS011;53405;57.012;40.984;2022-11-15T09:20:39;6.13;;;2.10;;
59390;SDS011;53405;57.012;40.984;2022-11-15T09:23:45;6.55;;;1.63;;
59390;SDS011;53405;57.012;40.984;2022-11-15T09:26:51;10.75;;;2.28;;
59390;SDS011;53405;57.012;40.984;2022-11-15T09:29:58;5.57;;;2.10;;
59390;SDS011;53405;57.012;40.984;2022-11-15T09:33:10;10.13;;;2.10;;
59390;SDS011;53405;57.012;40.984;2022-11-15T09:36:18;8.02;;;1.83;;
59390;SDS011;53405;57.012;40.984;2022-11-15T09:39:24;5.78;;;1.90;;
59390;SDS011;53405;57.012;40.984;2022-11-15T09:49:37;4.88;;;1.77;;
59390;SDS011;53405;57.012;40.984;2022-11-15T09:52:34;5.25;;;1.83;;
59390;SDS011;53405;57.012;40.984;2022-11-15T09:55:30;8.27;;;2.30;;
59390;SDS011;53405;57.012;40.984;2022-11-15T10:01:41;7.45;;;2.15;;
59390;SDS011;53405;57.012;40.984;2022-11-15T10:04:26;6.13;;;2.28;;
59390;SDS011;53405;57.012;40.984;2022-11-15T10:07:16;9.05;;;2.03;;
59390;SDS011;53405;57.012;40.984;2022-11-15T10:10:38;8.30;;;1.90;;
59390;SDS011;53405;57.012;40.984;2022-11-15T10:13:30;5.82;;;1.70;;
59390;SDS011;53405;57.012;40.984;2022-11-15T10:20:02;6.43;;;2.17;;
59390;SDS011;53405;57.012;40.984;2022-11-15T10:23:00;6.43;;;2.03;;
59390;SDS011;53405;57.012;40.984;2022-11-15T10:25:58;5.53;;;1.95;;
59390;SDS011;53405;57.012;40.984;2022-11-15T10:28:51;7.80;;;1.92;;
59390;SDS011;53405;57.012;40.984;2022-11-15T10:31:38;6.43;;;1.90;;
59390;SDS011;53405;57.012;40.984;2022-11-15T10:37:26;8.20;;;2.20;;
59390;SDS011;53405;57.012;40.984;2022-11-15T10:40:22;6.43;;;2.50;;
59390;SDS011;53405;57.012;40.984;2022-11-15T10:46:20;5.28;;;1.88;;
59390;SDS011;53405;57.012;40.984;2022-11-15T10:49:29;6.85;;;1.88;;
59390;SDS011;53405;57.012;40.984;2022-11-15T10:52:19;5.85;;;2.30;;
59390;SDS011;53405;57.012;40.984;2022-11-15T10:58:05;8.10;;;2.10;;
59390;SDS011;53405;57.012;40.984;2022-11-15T11:04:05;5.47;;;2.15;;
59390;SDS011;53405;57.012;40.984;2022-11-15T11:06:55;6.45;;;2.00;;
59390;SDS011;53405;57.012;40.984;2022-11-15T11:09:47;8.48;;;2.58;;
59390;SDS011;53405;57.012;40.984;2022-11-15T11:12:49;10.23;;;1.95;;
59390;SDS011;53405;57.012;40.984;2022-11-15T11:15:36;9.73;;;2.95;;
59390;SDS011;53405;57.012;40.984;2022-11-15T11:18:27;6.20;;;2.33;;
59390;SDS011;53405;57.012;40.984;2022-11-15T11:21:26;11.13;;;2.15;;
59390;SDS011;53405;57.012;40.984;2022-11-15T11:25:32;5.18;;;1.95;;
59390;SDS011;53405;57.012;40.984;2022-11-15T11:31:17;6.63;;;1.70;;
59390;SDS011;53405;57.012;40.984;2022-11-15T11:34:34;3.78;;;1.48;;
59390;SDS011;53405;57.012;40.984;2022-11-15T11:37:49;10.85;;;2.10;;
59390;SDS011;53405;57.012;40.984;2022-11-15T11:40:44;10.65;;;2.22;;
59390;SDS011;53405;57.012;40.984;2022-11-15T11:43:45;6.90;;;2.40;;
59390;SDS011;53405;57.012;40.984;2022-11-15T11:46:55;11.85;;;2.72;;
59390;SDS011;53405;57.012;40.984;2022-11-15T11:55:37;5.78;;;2.60;;
59390;SDS011;53405;57.012;40.984;2022-11-15T11:58:33;8.40;;;3.03;;
59390;SDS011;53405;57.012;40.984;2022-11-15T12:01:25;9.00;;;2.65;;
59390;SDS011;53405;57.012;40.984;2022-11-15T12:04:27;10.13;;;3.38;;
59390;SDS011;53405;57.012;40.984;2022-11-15T12:13:10;8.05;;;2.38;;
59390;SDS011;53405;57.012;40.984;2022-11-15T12:16:03;9.23;;;1.90;;
59390;SDS011;53405;57.012;40.984;2022-11-15T12:19:07;5.68;;;1.90;;
59390;SDS011;53405;57.012;40.984;2022-11-15T12:28:54;5.80;;;2.40;;
59390;SDS011;53405;57.012;40.984;2022-11-15T12:31:53;6.55;;;2.33;;
59390;SDS011;53405;57.012;40.984;2022-11-15T12:34:44;5.00;;;2.30;;
59390;SDS011;53405;57.012;40.984;2022-11-15T12:46:05;6.30;;;2.00;;
59390;SDS011;53405;57.012;40.984;2022-11-15T12:49:02;9.38;;;3.20;;
59390;SDS011;53405;57.012;40.984;2022-11-15T12:54:50;6.53;;;1.80;;
59390;SDS011;53405;57.012;40.984;2022-11-15T12:57:40;6.80;;;2.05;;
59390;SDS011;53405;57.012;40.984;2022-11-15T13:03:18;7.38;;;2.03;;
59390;SDS011;53405;57.012;40.984;2022-11-15T13:06:08;7.65;;;2.47;;
59390;SDS011;53405;57.012;40.984;2022-11-15T13:08:56;7.53;;;2.40;;
59390;SDS011;53405;57.012;40.984;2022-11-15T13:11:48;7.30;;;2.22;;
59390;SDS011;53405;57.012;40.984;2022-11-15T13:17:29;14.52;;;4.40;;
59390;SDS011;53405;57.012;40.984;2022-11-15T13:23:18;9.95;;;4.07;;
59390;SDS011;53405;57.012;40.984;2022-11-15T13:26:10;10.88;;;3.97;;
59390;SDS011;53405;57.012;40.984;2022-11-15T13:29:01;4.53;;;2.13;;
59390;SDS011;53405;57.012;40.984;2022-11-15T13:31:48;4.32;;;2.10;;
59390;SDS011;53405;57.012;40.984;2022-11-15T13:34:36;7.03;;;1.85;;
59390;SDS011;53405;57.012;40.984;2022-11-15T13:37:40;8.75;;;2.53;;
59390;SDS011;53405;57.012;40.984;2022-11-15T13:40:29;6.15;;;2.17;;
59390;SDS011;53405;57.012;40.984;2022-11-15T13:49:08;7.72;;;2.25;;
59390;SDS011;53405;57.012;40.984;2022-11-15T13:52:03;5.15;;;1.80;;
59390;SDS011;53405;57.012;40.984;2022-11-15T13:54:58;5.70;;;2.40;;
59390;SDS011;53405;57.012;40.984;2022-11-15T13:57:56;6.53;;;1.83;;
59390;SDS011;53405;57.012;40.984;2022-11-15T14:00:46;6.30;;;2.20;;
59390;SDS011;53405;57.012;40.984;2022-11-15T14:03:35;5.75;;;2.42;;
59390;SDS011;53405;57.012;40.984;2022-11-15T14:06:33;5.70;;;1.70;;
59390;SDS011;53405;57.012;40.984;2022-11-15T14:09:39;6.03;;;1.85;;
59390;SDS011;53405;57.012;40.984;2022-11-15T14:12:31;11.48;;;4.55;;
59390;SDS011;53405;57.012;40.984;2022-11-15T14:15:28;9.23;;;2.88;;
59390;SDS011;53405;57.012;40.984;2022-11-15T14:21:31;10.32;;;2.47;;
59390;SDS011;53405;57.012;40.984;2022-11-15T14:24:20;48.03;;;5.27;;
59390;SDS011;53405;57.012;40.984;2022-11-15T14:27:18;10.18;;;2.90;;
59390;SDS011;53405;57.012;40.984;2022-11-15T14:30:15;13.95;;;2.50;;
59390;SDS011;53405;57.012;40.984;2022-11-15T14:33:50;10.18;;;2.80;;
59390;SDS011;53405;57.012;40.984;2022-11-15T14:36:19;19.33;;;2.85;;
59390;SDS011;53405;57.012;40.984;2022-11-15T14:39:08;9.77;;;2.53;;
59390;SDS011;53405;57.012;40.984;2022-11-15T14:41:58;14.10;;;3.83;;
59390;SDS011;53405;57.012;40.984;2022-11-15T14:44:45;17.45;;;3.78;;
59390;SDS011;53405;57.012;40.984;2022-11-15T14:47:33;16.92;;;4.22;;
59390;SDS011;53405;57.012;40.984;2022-11-15T14:50:21;10.27;;;2.40;;
59390;SDS011;53405;57.012;40.984;2022-11-15T14:53:13;10.93;;;3.10;;
59390;SDS011;53405;57.012;40.984;2022-11-15T14:56:03;13.10;;;3.22;;
59390;SDS011;53405;57.012;40.984;2022-11-15T14:58:50;19.40;;;4.85;;
59390;SDS011;53405;57.012;40.984;2022-11-15T15:01:38;19.23;;;5.22;;
59390;SDS011;53405;57.012;40.984;2022-11-15T15:04:25;26.38;;;8.15;;
59390;SDS011;53405;57.012;40.984;2022-11-15T15:07:13;20.50;;;7.68;;
59390;SDS011;53405;57.012;40.984;2022-11-15T15:10:01;14.85;;;4.50;;
59390;SDS011;53405;57.012;40.984;2022-11-15T15:13:17;16.60;;;3.22;;
59390;SDS011;53405;57.012;40.984;2022-11-15T15:16:06;17.55;;;5.38;;
59390;SDS011;53405;57.012;40.984;2022-11-15T15:18:54;8.50;;;3.17;;
59390;SDS011;53405;57.012;40.984;2022-11-15T15:21:41;15.63;;;3.15;;
59390;SDS011;53405;57.012;40.984;2022-11-15T15:24:29;13.98;;;3.95;;
59390;SDS011;53405;57.012;40.984;2022-11-15T15:27:16;10.45;;;3.50;;
59390;SDS011;53405;57.012;40.984;2022-11-15T15:30:04;9.35;;;3.55;;
59390;SDS011;53405;57.012;40.984;2022-11-15T15:32:52;17.65;;;6.47;;
59390;SDS011;53405;57.012;40.984;2022-11-15T15:35:41;21.50;;;5.53;;
59390;SDS011;53405;57.012;40.984;2022-11-15T15:38:28;61.90;;;7.95;;
59390;SDS011;53405;57.012;40.984;2022-11-15T15:41:18;22.75;;;5.20;;
59390;SDS011;53405;57.012;40.984;2022-11-15T15:44:06;14.73;;;4.68;;
59390;SDS011;53405;57.012;40.984;2022-11-15T15:46:53;20.75;;;4.38;;
59390;SDS011;53405;57.012;40.984;2022-11-15T15:49:41;14.35;;;4.10;;
59390;SDS011;53405;57.012;40.984;2022-11-15T15:52:29;19.85;;;5.90;;
59390;SDS011;53405;57.012;40.984;2022-11-15T15:55:16;53.92;;;15.52;;
59390;SDS011;53405;57.012;40.984;2022-11-15T15:58:04;34.88;;;11.75;;
59390;SDS011;53405;57.012;40.984;2022-11-15T16:00:52;30.25;;;8.50;;
59390;SDS011;53405;57.012;40.984;2022-11-15T16:03:40;28.60;;;8.43;;
59390;SDS011;53405;57.012;40.984;2022-11-15T16:06:32;51.60;;;9.73;;
59390;SDS011;53405;57.012;40.984;2022-11-15T16:09:22;33.95;;;7.43;;
59390;SDS011;53405;57.012;40.984;2022-11-15T16:12:30;21.50;;;6.00;;
59390;SDS011;53405;57.012;40.984;2022-11-15T16:15:22;14.27;;;3.65;;
59390;SDS011;53405;57.012;40.984;2022-11-15T16:18:17;12.70;;;4.78;;
59390;SDS011;53405;57.012;40.984;2022-11-15T16:21:05;21.35;;;5.35;;
59390;SDS011;53405;57.012;40.984;2022-11-15T16:23:55;21.90;;;6.63;;
59390;SDS011;53405;57.012;40.984;2022-11-15T16:26:42;14.40;;;5.25;;
59390;SDS011;53405;57.012;40.984;2022-11-15T16:29:30;14.63;;;5.32;;
59390;SDS011;53405;57.012;40.984;2022-11-15T16:32:18;20.10;;;6.00;;
59390;SDS011;53405;57.012;40.984;2022-11-15T16:35:05;17.42;;;5.60;;
59390;SDS011;53405;57.012;40.984;2022-11-15T16:37:54;16.00;;;5.32;;
59390;SDS011;53405;57.012;40.984;2022-11-15T16:40:42;19.58;;;5.60;;
59390;SDS011;53405;57.012;40.984;2022-11-15T16:43:30;28.40;;;6.03;;
59390;SDS011;53405;57.012;40.984;2022-11-15T16:46:19;23.65;;;6.22;;
59390;SDS011;53405;57.012;40.984;2022-11-15T16:49:14;21.52;;;6.47;;
59390;SDS011;53405;57.012;40.984;2022-11-15T16:52:02;14.50;;;5.35;;
59390;SDS011;53405;57.012;40.984;2022-11-15T16:54:49;19.88;;;5.78;;
59390;SDS011;53405;57.012;40.984;2022-11-15T16:57:37;17.92;;;6.97;;
59390;SDS011;53405;57.012;40.984;2022-11-15T17:00:25;25.60;;;7.72;;
59390;SDS011;53405;57.012;40.984;2022-11-15T17:03:13;24.23;;;8.55;;
59390;SDS011;53405;57.012;40.984;2022-11-15T17:06:01;17.77;;;8.07;;
59390;SDS011;53405;57.012;40.984;2022-11-15T17:08:48;19.60;;;7.22;;
59390;SDS011;53405;57.012;40.984;2022-11-15T17:11:36;16.67;;;6.35;;
59390;SDS011;53405;57.012;40.984;2022-11-15T17:14:23;11.23;;;5.07;;
59390;SDS011;53405;57.012;40.984;2022-11-15T17:17:11;15.13;;;4.55;;
59390;SDS011;53405;57.012;40.984;2022-11-15T17:19:59;26.42;;;5.78;;
59390;SDS011;53405;57.012;40.984;2022-11-15T17:22:47;14.48;;;4.55;;
59390;SDS011;53405;57.012;40.984;2022-11-15T17:25:34;13.73;;;4.90;;
59390;SDS011;53405;57.012;40.984;2022-11-15T17:28:22;16.15;;;5.28;;
59390;SDS011;53405;57.012;40.984;2022-11-15T17:31:10;13.40;;;4.50;;
59390;SDS011;53405;57.012;40.984;2022-11-15T17:34:00;27.17;;;6.72;;
59390;SDS011;53405;57.012;40.984;2022-11-15T17:36:49;15.95;;;4.93;;
59390;SDS011;53405;57.012;40.984;2022-11-15T17:39:37;21.27;;;5.88;;
59390;SDS011;53405;57.012;40.984;2022-11-15T17:42:24;12.90;;;4.65;;
59390;SDS011;53405;57.012;40.984;2022-11-15T17:45:12;9.13;;;4.50;;
59390;SDS011;53405;57.012;40.984;2022-11-15T17:47:59;11.27;;;4.85;;
59390;SDS011;53405;57.012;40.984;2022-11-15T17:51:20;15.00;;;5.43;;
59390;SDS011;53405;57.012;40.984;2022-11-15T17:54:01;18.38;;;5.63;;
59390;SDS011;53405;57.012;40.984;2022-11-15T17:56:49;26.00;;;6.10;;
59390;SDS011;53405;57.012;40.984;2022-11-15T17:59:36;17.23;;;4.97;;
59390;SDS011;53405;57.012;40.984;2022-11-15T18:02:24;17.75;;;5.30;;
59390;SDS011;53405;57.012;40.984;2022-11-15T18:05:11;25.35;;;6.60;;
59390;SDS011;53405;57.012;40.984;2022-11-15T18:07:59;16.98;;;4.55;;
59390;SDS011;53405;57.012;40.984;2022-11-15T18:10:46;14.93;;;4.50;;
59390;SDS011;53405;57.012;40.984;2022-11-15T18:13:35;14.57;;;4.88;;
59390;SDS011;53405;57.012;40.984;2022-11-15T18:16:24;26.30;;;7.43;;
59390;SDS011;53405;57.012;40.984;2022-11-15T18:19:13;24.23;;;7.47;;
59390;SDS011;53405;57.012;40.984;2022-11-15T18:22:01;24.40;;;7.80;;
59390;SDS011;53405;57.012;40.984;2022-11-15T18:27:38;28.95;;;7.30;;
59390;SDS011;53405;57.012;40.984;2022-11-15T18:30:26;21.13;;;7.47;;
59390;SDS011;53405;57.012;40.984;2022-11-15T18:33:14;24.77;;;6.47;;
59390;SDS011;53405;57.012;40.984;2022-11-15T18:36:03;19.00;;;6.35;;
59390;SDS011;53405;57.012;40.984;2022-11-15T18:38:56;20.48;;;6.97;;
59390;SDS011;53405;57.012;40.984;2022-11-15T18:41:50;19.70;;;6.75;;
59390;SDS011;53405;57.012;40.984;2022-11-15T18:44:38;20.05;;;6.70;;
59390;SDS011;53405;57.012;40.984;2022-11-15T18:47:26;21.70;;;7.72;;
59390;SDS011;53405;57.012;40.984;2022-11-15T18:50:13;15.95;;;7.25;;
59390;SDS011;53405;57.012;40.984;2022-11-15T18:53:01;19.10;;;7.35;;
59390;SDS011;53405;57.012;40.984;2022-11-15T18:55:48;26.50;;;8.02;;
59390;SDS011;53405;57.012;40.984;2022-11-15T18:58:37;19.48;;;6.22;;
59390;SDS011;53405;57.012;40.984;2022-11-15T19:01:27;19.95;;;6.75;;
59390;SDS011;53405;57.012;40.984;2022-11-15T19:04:17;18.67;;;6.55;;
59390;SDS011;53405;57.012;40.984;2022-11-15T19:07:06;13.13;;;6.18;;
59390;SDS011;53405;57.012;40.984;2022-11-15T19:09:54;18.35;;;6.90;;
59390;SDS011;53405;57.012;40.984;2022-11-15T19:12:42;19.92;;;7.60;;
59390;SDS011;53405;57.012;40.984;2022-11-15T19:15:29;13.88;;;5.80;;
59390;SDS011;53405;57.012;40.984;2022-11-15T19:18:18;15.07;;;5.53;;
59390;SDS011;53405;57.012;40.984;2022-11-15T19:21:06;14.25;;;5.65;;
59390;SDS011;53405;57.012;40.984;2022-11-15T19:23:58;13.77;;;5.40;;
59390;SDS011;53405;57.012;40.984;2022-11-15T19:26:46;10.90;;;5.03;;
59390;SDS011;53405;57.012;40.984;2022-11-15T19:29:34;7.45;;;4.43;;
59390;SDS011;53405;57.012;40.984;2022-11-15T19:32:21;15.52;;;5.45;;
59390;SDS011;53405;57.012;40.984;2022-11-15T19:35:09;15.80;;;5.03;;